Missouri River (Missouri), Glasgow (06906500)

StateMissouriLatestUnknown (38700 cfs)
RiverMissouri RiverRatingObservedEstimated
Updated2022-09-25 21:30 (26 minutes ago)Flood - The river is flooding. Obstacles can be treacherous or deadly. The river should be avoided at this stage for casual trips and definitely for the inexperienced. Trips should be attempted only with protective gear and equipment.Flood(none)(none)
Discharge38700 cfs (median: 48100 cfs)High - The river is high and potentially dangerous, especially for the young and / or inexperienced. Normal stream obstacles are sometimes difficult to navigate. Extended distances can be attempted, but canoe travel may not be advisable.High(none)(none)
Height10.38 feetGood - Conditions are ideal for a canoe or kayak. Boats typically will drag on fewer than one-quarter of riffles, if at all, and portages are unnecessary or rare. Normal float lengths can be attempted without a problem.Good(none)(none)
TrendSteady (falling over 24 hours)Low - River is low but can still be floated. Some riffles are okay but most come with significant dragging and might need a portage. Float lengths should be reduced to accommodate low flow, dragging, and portages.Low(none)(none)
USGSExternal icon USGS Site (External icon Duck Duck Go Maps)Poor - River is too low to float comfortably. Most or all riffles will drag or must be portaged and some obstacles (such as slick shelf rock) cause undue problems. Avoid the river at this stage for casual paddling trips.Poor(none)(none)

Trending Data

Plot Image

Trips for Missouri River (Missouri), Glasgow (06906500)

DateStartEndDistanceConditionDischargeHeightFishingDetails

A total of 0 rows are displayed.

Condition Descriptions

Fishing Conditions

Fish Species

Notes

Classic Trip List

The classic River Trips application is still available for use. It is updated with the new system using a data retrofit. It is no longer maintained. The original River Trips application is no longer updated (as of 1 Dec 2016) but can be checked for errors or for the condition of the data before it was converted to the new system.

Gauge Data Table

ObservationHeightDischargeMaximum
Discharge
Minimum
Discharge
Mean
Discharge
P05P10P20P25P50
(Median)
P75P80P90P95
2022-09-25 21:30 10.38 38700 197000 (2010) 36500 (2002) 69300 36700 38800 42300 42300 48100 78000 91900 165000 195000
2022-09-25 20:30 10.38 38700 197000 (2010) 36500 (2002) 69300 36700 38800 42300 42300 48100 78000 91900 165000 195000
2022-09-25 19:30 10.38 38700 197000 (2010) 36500 (2002) 69300 36700 38800 42300 42300 48100 78000 91900 165000 195000
2022-09-25 18:30 10.36 38600 197000 (2010) 36500 (2002) 69300 36700 38800 42300 42300 48100 78000 91900 165000 195000
2022-09-25 17:30 10.31 38400 197000 (2010) 36500 (2002) 69300 36700 38800 42300 42300 48100 78000 91900 165000 195000
2022-09-25 16:30 10.34 38500 197000 (2010) 36500 (2002) 69300 36700 38800 42300 42300 48100 78000 91900 165000 195000
2022-09-25 15:30 10.35 38600 197000 (2010) 36500 (2002) 69300 36700 38800 42300 42300 48100 78000 91900 165000 195000
2022-09-25 14:30 10.33 38500 197000 (2010) 36500 (2002) 69300 36700 38800 42300 42300 48100 78000 91900 165000 195000
2022-09-25 13:30 10.36 38600 197000 (2010) 36500 (2002) 69300 36700 38800 42300 42300 48100 78000 91900 165000 195000
2022-09-25 12:30 10.33 38500 197000 (2010) 36500 (2002) 69300 36700 38800 42300 42300 48100 78000 91900 165000 195000
2022-09-25 11:30 10.39 38700 197000 (2010) 36500 (2002) 69300 36700 38800 42300 42300 48100 78000 91900 165000 195000
2022-09-25 10:30 10.39 38700 197000 (2010) 36500 (2002) 69300 36700 38800 42300 42300 48100 78000 91900 165000 195000
2022-09-25 09:30 10.38 38700 197000 (2010) 36500 (2002) 69300 36700 38800 42300 42300 48100 78000 91900 165000 195000
2022-09-25 08:30 10.40 38800 197000 (2010) 36500 (2002) 69300 36700 38800 42300 42300 48100 78000 91900 165000 195000
2022-09-25 07:30 10.42 38900 197000 (2010) 36500 (2002) 69300 36700 38800 42300 42300 48100 78000 91900 165000 195000
2022-09-25 06:30 10.45 39000 197000 (2010) 36500 (2002) 69300 36700 38800 42300 42300 48100 78000 91900 165000 195000
2022-09-25 05:30 10.45 39000 197000 (2010) 36500 (2002) 69300 36700 38800 42300 42300 48100 78000 91900 165000 195000
2022-09-25 04:30 10.46 39100 197000 (2010) 36500 (2002) 69300 36700 38800 42300 42300 48100 78000 91900 165000 195000
2022-09-25 03:30 10.47 39100 197000 (2010) 36500 (2002) 69300 36700 38800 42300 42300 48100 78000 91900 165000 195000
2022-09-25 02:30 10.47 39100 197000 (2010) 36500 (2002) 69300 36700 38800 42300 42300 48100 78000 91900 165000 195000
2022-09-25 01:30 10.47 39100 197000 (2010) 36500 (2002) 69300 36700 38800 42300 42300 48100 78000 91900 165000 195000
2022-09-25 00:30 10.46 39100 197000 (2010) 36500 (2002) 69300 36700 38800 42300 42300 48100 78000 91900 165000 195000
2022-09-24 23:30 10.45 39000 200000 (2010) 36700 (2002) 69500 37000 40000 42200 42500 48000 81000 91900 171000 198000
2022-09-24 22:30 10.46 39100 200000 (2010) 36700 (2002) 69500 37000 40000 42200 42500 48000 81000 91900 171000 198000
2022-09-24 21:30 10.43 38900 200000 (2010) 36700 (2002) 69500 37000 40000 42200 42500 48000 81000 91900 171000 198000
2022-09-24 20:30 10.44 39000 200000 (2010) 36700 (2002) 69500 37000 40000 42200 42500 48000 81000 91900 171000 198000
2022-09-24 19:30 10.41 38800 200000 (2010) 36700 (2002) 69500 37000 40000 42200 42500 48000 81000 91900 171000 198000
2022-09-24 18:30 10.37 38700 200000 (2010) 36700 (2002) 69500 37000 40000 42200 42500 48000 81000 91900 171000 198000
2022-09-24 17:30 10.39 38700 200000 (2010) 36700 (2002) 69500 37000 40000 42200 42500 48000 81000 91900 171000 198000
2022-09-24 16:30 10.36 38600 200000 (2010) 36700 (2002) 69500 37000 40000 42200 42500 48000 81000 91900 171000 198000
2022-09-24 15:30 10.40 38800 200000 (2010) 36700 (2002) 69500 37000 40000 42200 42500 48000 81000 91900 171000 198000
2022-09-24 14:30 10.37 38700 200000 (2010) 36700 (2002) 69500 37000 40000 42200 42500 48000 81000 91900 171000 198000
2022-09-24 13:30 10.41 38800 200000 (2010) 36700 (2002) 69500 37000 40000 42200 42500 48000 81000 91900 171000 198000
2022-09-24 12:30 10.41 38800 200000 (2010) 36700 (2002) 69500 37000 40000 42200 42500 48000 81000 91900 171000 198000
2022-09-24 11:30 10.39 38700 200000 (2010) 36700 (2002) 69500 37000 40000 42200 42500 48000 81000 91900 171000 198000
2022-09-24 10:30 10.38 38700 200000 (2010) 36700 (2002) 69500 37000 40000 42200 42500 48000 81000 91900 171000 198000
2022-09-24 09:30 10.44 39000 200000 (2010) 36700 (2002) 69500 37000 40000 42200 42500 48000 81000 91900 171000 198000
2022-09-24 08:30 10.43 38900 200000 (2010) 36700 (2002) 69500 37000 40000 42200 42500 48000 81000 91900 171000 198000
2022-09-24 07:30 10.43 38900 200000 (2010) 36700 (2002) 69500 37000 40000 42200 42500 48000 81000 91900 171000 198000
2022-09-24 06:30 10.43 38900 200000 (2010) 36700 (2002) 69500 37000 40000 42200 42500 48000 81000 91900 171000 198000
2022-09-24 05:30 10.43 38900 200000 (2010) 36700 (2002) 69500 37000 40000 42200 42500 48000 81000 91900 171000 198000
2022-09-24 04:30 10.43 38900 200000 (2010) 36700 (2002) 69500 37000 40000 42200 42500 48000 81000 91900 171000 198000
2022-09-24 03:30 10.42 38900 200000 (2010) 36700 (2002) 69500 37000 40000 42200 42500 48000 81000 91900 171000 198000
2022-09-24 02:30 10.41 38800 200000 (2010) 36700 (2002) 69500 37000 40000 42200 42500 48000 81000 91900 171000 198000
2022-09-24 01:30 10.41 38800 200000 (2010) 36700 (2002) 69500 37000 40000 42200 42500 48000 81000 91900 171000 198000
2022-09-24 00:30 10.41 38800 200000 (2010) 36700 (2002) 69500 37000 40000 42200 42500 48000 81000 91900 171000 198000
2022-09-23 23:30 10.41 38800 195000 (2010) 36400 (2002) 69600 36500 38700 42300 42700 49100 82500 94000 158000 192000
2022-09-23 22:30 10.41 38800 195000 (2010) 36400 (2002) 69600 36500 38700 42300 42700 49100 82500 94000 158000 192000
2022-09-23 21:30 10.40 38800 195000 (2010) 36400 (2002) 69600 36500 38700 42300 42700 49100 82500 94000 158000 192000
2022-09-23 20:30 10.39 38700 195000 (2010) 36400 (2002) 69600 36500 38700 42300 42700 49100 82500 94000 158000 192000
2022-09-23 19:30 10.40 38800 195000 (2010) 36400 (2002) 69600 36500 38700 42300 42700 49100 82500 94000 158000 192000
2022-09-23 18:30 10.34 38500 195000 (2010) 36400 (2002) 69600 36500 38700 42300 42700 49100 82500 94000 158000 192000
2022-09-23 17:30 10.38 38700 195000 (2010) 36400 (2002) 69600 36500 38700 42300 42700 49100 82500 94000 158000 192000
2022-09-23 16:30 10.35 38600 195000 (2010) 36400 (2002) 69600 36500 38700 42300 42700 49100 82500 94000 158000 192000
2022-09-23 15:30 10.36 38600 195000 (2010) 36400 (2002) 69600 36500 38700 42300 42700 49100 82500 94000 158000 192000
2022-09-23 14:30 10.35 38600 195000 (2010) 36400 (2002) 69600 36500 38700 42300 42700 49100 82500 94000 158000 192000
2022-09-23 13:30 10.36 38600 195000 (2010) 36400 (2002) 69600 36500 38700 42300 42700 49100 82500 94000 158000 192000
2022-09-23 12:30 10.32 38400 195000 (2010) 36400 (2002) 69600 36500 38700 42300 42700 49100 82500 94000 158000 192000
2022-09-23 11:30 10.35 38600 195000 (2010) 36400 (2002) 69600 36500 38700 42300 42700 49100 82500 94000 158000 192000
2022-09-23 10:30 10.30 38300 195000 (2010) 36400 (2002) 69600 36500 38700 42300 42700 49100 82500 94000 158000 192000
2022-09-23 09:30 10.34 38500 195000 (2010) 36400 (2002) 69600 36500 38700 42300 42700 49100 82500 94000 158000 192000
2022-09-23 08:30 10.32 38400 195000 (2010) 36400 (2002) 69600 36500 38700 42300 42700 49100 82500 94000 158000 192000
2022-09-23 07:30 10.29 38300 195000 (2010) 36400 (2002) 69600 36500 38700 42300 42700 49100 82500 94000 158000 192000
2022-09-23 06:30 10.28 38200 195000 (2010) 36400 (2002) 69600 36500 38700 42300 42700 49100 82500 94000 158000 192000
2022-09-23 05:30 10.30 38300 195000 (2010) 36400 (2002) 69600 36500 38700 42300 42700 49100 82500 94000 158000 192000
2022-09-23 04:30 10.32 38400 195000 (2010) 36400 (2002) 69600 36500 38700 42300 42700 49100 82500 94000 158000 192000
2022-09-23 03:30 10.33 38500 195000 (2010) 36400 (2002) 69600 36500 38700 42300 42700 49100 82500 94000 158000 192000
2022-09-23 02:30 10.32 38400 195000 (2010) 36400 (2002) 69600 36500 38700 42300 42700 49100 82500 94000 158000 192000
2022-09-23 01:30 10.32 38400 195000 (2010) 36400 (2002) 69600 36500 38700 42300 42700 49100 82500 94000 158000 192000
2022-09-23 00:30 10.32 38400 195000 (2010) 36400 (2002) 69600 36500 38700 42300 42700 49100 82500 94000 158000 192000
2022-09-22 23:30 10.31 38400 162000 (2010) 36900 (2002) 68300 37100 39000 41500 42400 50700 84800 95800 137000 160000
2022-09-22 22:30 10.31 38400 162000 (2010) 36900 (2002) 68300 37100 39000 41500 42400 50700 84800 95800 137000 160000
2022-09-22 21:30 10.31 38400 162000 (2010) 36900 (2002) 68300 37100 39000 41500 42400 50700 84800 95800 137000 160000
2022-09-22 20:30 10.30 38300 162000 (2010) 36900 (2002) 68300 37100 39000 41500 42400 50700 84800 95800 137000 160000
2022-09-22 19:30 10.29 38300 162000 (2010) 36900 (2002) 68300 37100 39000 41500 42400 50700 84800 95800 137000 160000
2022-09-22 18:30 10.30 38300 162000 (2010) 36900 (2002) 68300 37100 39000 41500 42400 50700 84800 95800 137000 160000
2022-09-22 17:30 10.26 38200 162000 (2010) 36900 (2002) 68300 37100 39000 41500 42400 50700 84800 95800 137000 160000
2022-09-22 16:30 10.26 38200 162000 (2010) 36900 (2002) 68300 37100 39000 41500 42400 50700 84800 95800 137000 160000
2022-09-22 15:30 10.24 38100 162000 (2010) 36900 (2002) 68300 37100 39000 41500 42400 50700 84800 95800 137000 160000
2022-09-22 14:30 10.26 38200 162000 (2010) 36900 (2002) 68300 37100 39000 41500 42400 50700 84800 95800 137000 160000
2022-09-22 13:30 10.24 38100 162000 (2010) 36900 (2002) 68300 37100 39000 41500 42400 50700 84800 95800 137000 160000
2022-09-22 12:30 10.27 38200 162000 (2010) 36900 (2002) 68300 37100 39000 41500 42400 50700 84800 95800 137000 160000
2022-09-22 11:30 10.30 38300 162000 (2010) 36900 (2002) 68300 37100 39000 41500 42400 50700 84800 95800 137000 160000
2022-09-22 10:30 10.28 38200 162000 (2010) 36900 (2002) 68300 37100 39000 41500 42400 50700 84800 95800 137000 160000
2022-09-22 09:30 10.31 38400 162000 (2010) 36900 (2002) 68300 37100 39000 41500 42400 50700 84800 95800 137000 160000
2022-09-22 08:30 10.30 38300 162000 (2010) 36900 (2002) 68300 37100 39000 41500 42400 50700 84800 95800 137000 160000
2022-09-22 07:30 10.28 38200 162000 (2010) 36900 (2002) 68300 37100 39000 41500 42400 50700 84800 95800 137000 160000
2022-09-22 06:30 10.31 38400 162000 (2010) 36900 (2002) 68300 37100 39000 41500 42400 50700 84800 95800 137000 160000
2022-09-22 05:30 10.30 38300 162000 (2010) 36900 (2002) 68300 37100 39000 41500 42400 50700 84800 95800 137000 160000
2022-09-22 04:30 10.30 38300 162000 (2010) 36900 (2002) 68300 37100 39000 41500 42400 50700 84800 95800 137000 160000
2022-09-22 03:30 10.30 38300 162000 (2010) 36900 (2002) 68300 37100 39000 41500 42400 50700 84800 95800 137000 160000
2022-09-22 02:30 10.30 38300 162000 (2010) 36900 (2002) 68300 37100 39000 41500 42400 50700 84800 95800 137000 160000
2022-09-22 01:30 10.30 38300 162000 (2010) 36900 (2002) 68300 37100 39000 41500 42400 50700 84800 95800 137000 160000
2022-09-22 00:30 10.29 38300 162000 (2010) 36900 (2002) 68300 37100 39000 41500 42400 50700 84800 95800 137000 160000
2022-09-21 23:30 10.29 38300 140000 (2010) 38100 (2002) 68900 38100 38200 41400 42800 48700 91800 98000 133000 140000
2022-09-21 22:30 10.29 38300 140000 (2010) 38100 (2002) 68900 38100 38200 41400 42800 48700 91800 98000 133000 140000
2022-09-21 21:30 10.27 38200 140000 (2010) 38100 (2002) 68900 38100 38200 41400 42800 48700 91800 98000 133000 140000
2022-09-21 20:30 10.25 38100 140000 (2010) 38100 (2002) 68900 38100 38200 41400 42800 48700 91800 98000 133000 140000
2022-09-21 19:30 10.24 38100 140000 (2010) 38100 (2002) 68900 38100 38200 41400 42800 48700 91800 98000 133000 140000
2022-09-21 18:30 10.20 37900 140000 (2010) 38100 (2002) 68900 38100 38200 41400 42800 48700 91800 98000 133000 140000
2022-09-21 17:30 10.20 37900 140000 (2010) 38100 (2002) 68900 38100 38200 41400 42800 48700 91800 98000 133000 140000
2022-09-21 16:30 10.24 38100 140000 (2010) 38100 (2002) 68900 38100 38200 41400 42800 48700 91800 98000 133000 140000
2022-09-21 15:30 10.17 37800 140000 (2010) 38100 (2002) 68900 38100 38200 41400 42800 48700 91800 98000 133000 140000
2022-09-21 14:30 10.18 37800 140000 (2010) 38100 (2002) 68900 38100 38200 41400 42800 48700 91800 98000 133000 140000
2022-09-21 13:30 10.19 37800 140000 (2010) 38100 (2002) 68900 38100 38200 41400 42800 48700 91800 98000 133000 140000
2022-09-21 12:30 10.18 37800 140000 (2010) 38100 (2002) 68900 38100 38200 41400 42800 48700 91800 98000 133000 140000
2022-09-21 11:30 10.21 37900 140000 (2010) 38100 (2002) 68900 38100 38200 41400 42800 48700 91800 98000 133000 140000
2022-09-21 10:30 10.21 37900 140000 (2010) 38100 (2002) 68900 38100 38200 41400 42800 48700 91800 98000 133000 140000
2022-09-21 09:30 10.21 37900 140000 (2010) 38100 (2002) 68900 38100 38200 41400 42800 48700 91800 98000 133000 140000
2022-09-21 08:30 10.24 38100 140000 (2010) 38100 (2002) 68900 38100 38200 41400 42800 48700 91800 98000 133000 140000
2022-09-21 07:30 10.22 38000 140000 (2010) 38100 (2002) 68900 38100 38200 41400 42800 48700 91800 98000 133000 140000
2022-09-21 06:30 10.23 38000 140000 (2010) 38100 (2002) 68900 38100 38200 41400 42800 48700 91800 98000 133000 140000
2022-09-21 05:30 10.22 38000 140000 (2010) 38100 (2002) 68900 38100 38200 41400 42800 48700 91800 98000 133000 140000
2022-09-21 04:30 10.24 38100 140000 (2010) 38100 (2002) 68900 38100 38200 41400 42800 48700 91800 98000 133000 140000
2022-09-21 03:30 10.24 38100 140000 (2010) 38100 (2002) 68900 38100 38200 41400 42800 48700 91800 98000 133000 140000
2022-09-21 02:30 10.20 37900 140000 (2010) 38100 (2002) 68900 38100 38200 41400 42800 48700 91800 98000 133000 140000
2022-09-21 01:30 10.23 38000 140000 (2010) 38100 (2002) 68900 38100 38200 41400 42800 48700 91800 98000 133000 140000
2022-09-21 00:30 10.22 38000 140000 (2010) 38100 (2002) 68900 38100 38200 41400 42800 48700 91800 98000 133000 140000
2022-09-20 23:30 10.21 37900 136000 (2010) 38300 (2002) 71200 38300 38300 41000 42100 48800 106000 115000 132000 136000
2022-09-20 22:30 10.20 37900 136000 (2010) 38300 (2002) 71200 38300 38300 41000 42100 48800 106000 115000 132000 136000
2022-09-20 21:30 10.18 37800 136000 (2010) 38300 (2002) 71200 38300 38300 41000 42100 48800 106000 115000 132000 136000
2022-09-20 20:30 10.21 37900 136000 (2010) 38300 (2002) 71200 38300 38300 41000 42100 48800 106000 115000 132000 136000
2022-09-20 19:30 10.17 37800 136000 (2010) 38300 (2002) 71200 38300 38300 41000 42100 48800 106000 115000 132000 136000
2022-09-20 18:30 10.16 37700 136000 (2010) 38300 (2002) 71200 38300 38300 41000 42100 48800 106000 115000 132000 136000
2022-09-20 17:30 10.11 37500 136000 (2010) 38300 (2002) 71200 38300 38300 41000 42100 48800 106000 115000 132000 136000
2022-09-20 16:30 10.12 37500 136000 (2010) 38300 (2002) 71200 38300 38300 41000 42100 48800 106000 115000 132000 136000
2022-09-20 15:30 10.09 37400 136000 (2010) 38300 (2002) 71200 38300 38300 41000 42100 48800 106000 115000 132000 136000
2022-09-20 14:30 10.11 37500 136000 (2010) 38300 (2002) 71200 38300 38300 41000 42100 48800 106000 115000 132000 136000
2022-09-20 13:30 10.07 37300 136000 (2010) 38300 (2002) 71200 38300 38300 41000 42100 48800 106000 115000 132000 136000
2022-09-20 12:30 10.10 37400 136000 (2010) 38300 (2002) 71200 38300 38300 41000 42100 48800 106000 115000 132000 136000
2022-09-20 11:30 10.12 37500 136000 (2010) 38300 (2002) 71200 38300 38300 41000 42100 48800 106000 115000 132000 136000
2022-09-20 10:30 10.07 37300 136000 (2010) 38300 (2002) 71200 38300 38300 41000 42100 48800 106000 115000 132000 136000
2022-09-20 09:30 10.15 37700 136000 (2010) 38300 (2002) 71200 38300 38300 41000 42100 48800 106000 115000 132000 136000
2022-09-20 08:30 10.10 37400 136000 (2010) 38300 (2002) 71200 38300 38300 41000 42100 48800 106000 115000 132000 136000
2022-09-20 07:30 10.12 37500 136000 (2010) 38300 (2002) 71200 38300 38300 41000 42100 48800 106000 115000 132000 136000
2022-09-20 06:30 10.16 37700 136000 (2010) 38300 (2002) 71200 38300 38300 41000 42100 48800 106000 115000 132000 136000
2022-09-20 05:30 10.15 37700 136000 (2010) 38300 (2002) 71200 38300 38300 41000 42100 48800 106000 115000 132000 136000
2022-09-20 04:30 10.15 37700 136000 (2010) 38300 (2002) 71200 38300 38300 41000 42100 48800 106000 115000 132000 136000
2022-09-20 03:30 10.16 37700 136000 (2010) 38300 (2002) 71200 38300 38300 41000 42100 48800 106000 115000 132000 136000
2022-09-20 02:30 10.15 37700 136000 (2010) 38300 (2002) 71200 38300 38300 41000 42100 48800 106000 115000 132000 136000
2022-09-20 01:30 10.14 37600 136000 (2010) 38300 (2002) 71200 38300 38300 41000 42100 48800 106000 115000 132000 136000
2022-09-20 00:30 10.13 37600 136000 (2010) 38300 (2002) 71200 38300 38300 41000 42100 48800 106000 115000 132000 136000
2022-09-19 23:30 10.12 37500 143000 (2008) 37900 (2002) 70100 38100 39800 41100 42300 48000 102000 103000 132000 142000
2022-09-19 22:30 10.12 37500 143000 (2008) 37900 (2002) 70100 38100 39800 41100 42300 48000 102000 103000 132000 142000
2022-09-19 21:30 10.11 37500 143000 (2008) 37900 (2002) 70100 38100 39800 41100 42300 48000 102000 103000 132000 142000
2022-09-19 20:30 10.11 37500 143000 (2008) 37900 (2002) 70100 38100 39800 41100 42300 48000 102000 103000 132000 142000
2022-09-19 19:30 10.10 37400 143000 (2008) 37900 (2002) 70100 38100 39800 41100 42300 48000 102000 103000 132000 142000
2022-09-19 18:30 10.09 37400 143000 (2008) 37900 (2002) 70100 38100 39800 41100 42300 48000 102000 103000 132000 142000
2022-09-19 17:30 10.07 37300 143000 (2008) 37900 (2002) 70100 38100 39800 41100 42300 48000 102000 103000 132000 142000
2022-09-19 16:30 10.08 37400 143000 (2008) 37900 (2002) 70100 38100 39800 41100 42300 48000 102000 103000 132000 142000
2022-09-19 15:30 10.01 37000 143000 (2008) 37900 (2002) 70100 38100 39800 41100 42300 48000 102000 103000 132000 142000
2022-09-19 14:30 10.09 37400 143000 (2008) 37900 (2002) 70100 38100 39800 41100 42300 48000 102000 103000 132000 142000
2022-09-19 13:30 10.08 37400 143000 (2008) 37900 (2002) 70100 38100 39800 41100 42300 48000 102000 103000 132000 142000
2022-09-19 12:30 10.07 37300 143000 (2008) 37900 (2002) 70100 38100 39800 41100 42300 48000 102000 103000 132000 142000
2022-09-19 11:30 10.07 37300 143000 (2008) 37900 (2002) 70100 38100 39800 41100 42300 48000 102000 103000 132000 142000
2022-09-19 10:30 10.05 37200 143000 (2008) 37900 (2002) 70100 38100 39800 41100 42300 48000 102000 103000 132000 142000
2022-09-19 09:30 10.06 37300 143000 (2008) 37900 (2002) 70100 38100 39800 41100 42300 48000 102000 103000 132000 142000
2022-09-19 08:30 10.07 37300 143000 (2008) 37900 (2002) 70100 38100 39800 41100 42300 48000 102000 103000 132000 142000
2022-09-19 07:30 10.10 37400 143000 (2008) 37900 (2002) 70100 38100 39800 41100 42300 48000 102000 103000 132000 142000
2022-09-19 06:30 10.09 37400 143000 (2008) 37900 (2002) 70100 38100 39800 41100 42300 48000 102000 103000 132000 142000
2022-09-19 05:30 10.10 37400 143000 (2008) 37900 (2002) 70100 38100 39800 41100 42300 48000 102000 103000 132000 142000
2022-09-19 04:30 10.07 37300 143000 (2008) 37900 (2002) 70100 38100 39800 41100 42300 48000 102000 103000 132000 142000
2022-09-19 03:30 10.08 37400 143000 (2008) 37900 (2002) 70100 38100 39800 41100 42300 48000 102000 103000 132000 142000
2022-09-19 02:30 10.08 37400 143000 (2008) 37900 (2002) 70100 38100 39800 41100 42300 48000 102000 103000 132000 142000
2022-09-19 01:30 10.11 37500 143000 (2008) 37900 (2002) 70100 38100 39800 41100 42300 48000 102000 103000 132000 142000
2022-09-19 00:30 10.08 37400 143000 (2008) 37900 (2002) 70100 38100 39800 41100 42300 48000 102000 103000 132000 142000
2022-09-18 23:30 10.14 37600 175000 (2008) 37500 (2002) 70700 37700 39600 42100 42800 48500 103000 108000 130000 171000
2022-09-18 22:30 10.07 37300 175000 (2008) 37500 (2002) 70700 37700 39600 42100 42800 48500 103000 108000 130000 171000
2022-09-18 21:30 10.06 37300 175000 (2008) 37500 (2002) 70700 37700 39600 42100 42800 48500 103000 108000 130000 171000
2022-09-18 20:30 10.11 37500 175000 (2008) 37500 (2002) 70700 37700 39600 42100 42800 48500 103000 108000 130000 171000
2022-09-18 19:30 10.10 37400 175000 (2008) 37500 (2002) 70700 37700 39600 42100 42800 48500 103000 108000 130000 171000
2022-09-18 18:30 10.06 37300 175000 (2008) 37500 (2002) 70700 37700 39600 42100 42800 48500 103000 108000 130000 171000
2022-09-18 17:30 10.06 37300 175000 (2008) 37500 (2002) 70700 37700 39600 42100 42800 48500 103000 108000 130000 171000
2022-09-18 16:30 10.07 37300 175000 (2008) 37500 (2002) 70700 37700 39600 42100 42800 48500 103000 108000 130000 171000
2022-09-18 15:30 10.10 37400 175000 (2008) 37500 (2002) 70700 37700 39600 42100 42800 48500 103000 108000 130000 171000
2022-09-18 14:30 10.04 37200 175000 (2008) 37500 (2002) 70700 37700 39600 42100 42800 48500 103000 108000 130000 171000
2022-09-18 13:30 10.09 37400 175000 (2008) 37500 (2002) 70700 37700 39600 42100 42800 48500 103000 108000 130000 171000
2022-09-18 12:30 10.02 37100 175000 (2008) 37500 (2002) 70700 37700 39600 42100 42800 48500 103000 108000 130000 171000
2022-09-18 11:30 10.08 37400 175000 (2008) 37500 (2002) 70700 37700 39600 42100 42800 48500 103000 108000 130000 171000
2022-09-18 10:30 10.08 37400 175000 (2008) 37500 (2002) 70700 37700 39600 42100 42800 48500 103000 108000 130000 171000
2022-09-18 09:30 10.12 37500 175000 (2008) 37500 (2002) 70700 37700 39600 42100 42800 48500 103000 108000 130000 171000
2022-09-18 08:30 10.12 37500 175000 (2008) 37500 (2002) 70700 37700 39600 42100 42800 48500 103000 108000 130000 171000
2022-09-18 07:30 10.11 37500 175000 (2008) 37500 (2002) 70700 37700 39600 42100 42800 48500 103000 108000 130000 171000
2022-09-18 06:30 10.16 37700 175000 (2008) 37500 (2002) 70700 37700 39600 42100 42800 48500 103000 108000 130000 171000
2022-09-18 05:30 10.17 37800 175000 (2008) 37500 (2002) 70700 37700 39600 42100 42800 48500 103000 108000 130000 171000
2022-09-18 04:30 10.18 37800 175000 (2008) 37500 (2002) 70700 37700 39600 42100 42800 48500 103000 108000 130000 171000
2022-09-18 03:30 10.12 37500 175000 (2008) 37500 (2002) 70700 37700 39600 42100 42800 48500 103000 108000 130000 171000
2022-09-18 02:30 10.13 37600 175000 (2008) 37500 (2002) 70700 37700 39600 42100 42800 48500 103000 108000 130000 171000
2022-09-18 01:30 10.12 37500 175000 (2008) 37500 (2002) 70700 37700 39600 42100 42800 48500 103000 108000 130000 171000
2022-09-18 00:30 10.17 37800 175000 (2008) 37500 (2002) 70700 37700 39600 42100 42800 48500 103000 108000 130000 171000

A total of 190 rows are displayed for years 2001 through 2021.